Terminal Aerodrome Forecast
Issued by NWS Charleston, WV

Current Version | Previous Version | Graphics & Text | Print | Product List | Glossary On
Versions: 1 2 3 4 5 6 7 8 9 10 11 12 13 14 15 16 17 18 19 20 21 22 23 24 25
000
FTUS41 KRLX 210500 RRA
TAFCRW
TAF
KCRW 210547Z 2106/2206 00000KT 4SM BR BKN050
      TEMPO 2106/2110 6SM BR
     FM211000 00000KT 2SM BR BKN025
      TEMPO 2110/2113 1/4SM FG VV001
     FM211700 24004KT P6SM VCTS BKN025CB
     FM212000 24005KT P6SM VCTS BKN035CB
     FM212200 24004KT 6SM TSRA BR BKN040CB
     FM220200 00000KT P6SM VCTS BKN040CB
     FM220500 00000KT P6SM BKN040=

USA.gov is the U.S. government's official web portal to all federal, state and local government web resources and services.